createdAt,value
2018-07-11T00:00:35.659Z,0.00
2018-07-11T00:01:35.647Z,0.00
2018-07-11T00:02:35.629Z,0.00
2018-07-11T00:03:35.621Z,0.00
2018-07-11T00:04:35.620Z,0.00
2018-07-11T00:05:35.588Z,0.00
2018-07-11T00:06:35.573Z,0.00
2018-07-11T00:07:35.560Z,0.00
2018-07-11T00:08:35.543Z,0.00
2018-07-11T00:09:35.543Z,0.00
2018-07-11T00:10:35.521Z,0.00
2018-07-11T00:11:35.503Z,0.00
2018-07-11T00:12:35.489Z,0.00
2018-07-11T00:13:35.472Z,0.00
2018-07-11T00:14:35.471Z,0.00
2018-07-11T00:15:35.442Z,0.00
2018-07-11T00:16:35.431Z,0.00
2018-07-11T00:17:35.415Z,0.00
2018-07-11T00:18:35.397Z,0.00
2018-07-11T00:19:35.428Z,0.00
2018-07-11T00:20:35.376Z,0.00
2018-07-11T00:21:35.356Z,0.00
2018-07-11T00:22:35.343Z,0.00
2018-07-11T00:23:35.333Z,0.00
2018-07-11T00:24:35.316Z,0.00
2018-07-11T00:25:35.323Z,0.00
2018-07-11T00:26:35.287Z,0.00
2018-07-11T00:27:35.272Z,0.00
2018-07-11T00:28:35.255Z,0.00
2018-07-11T00:29:35.242Z,0.00
2018-07-11T00:30:35.252Z,0.00
2018-07-11T00:31:35.230Z,0.00
2018-07-11T00:32:35.204Z,0.00
2018-07-11T00:33:35.187Z,0.00
2018-07-11T00:34:35.171Z,0.00
2018-07-11T00:35:35.195Z,0.00
2018-07-11T00:36:35.145Z,0.00
2018-07-11T00:37:35.128Z,0.00
2018-07-11T00:38:35.114Z,0.00
2018-07-11T00:39:35.116Z,0.00
2018-07-11T00:40:35.089Z,0.00
2018-07-11T00:41:35.085Z,0.00
2018-07-11T00:42:35.056Z,0.00
2018-07-11T00:43:35.041Z,0.00
2018-07-11T00:44:35.024Z,0.00
2018-07-11T00:45:35.042Z,0.00
2018-07-11T00:46:34.999Z,0.00
2018-07-11T00:47:34.981Z,0.00
2018-07-11T00:48:34.967Z,0.00
2018-07-11T00:49:34.949Z,0.00
2018-07-11T00:50:34.938Z,0.00
2018-07-11T00:51:34.935Z,0.00
2018-07-11T00:52:34.908Z,0.00
2018-07-11T00:53:34.890Z,0.00
2018-07-11T00:54:34.881Z,0.00
2018-07-11T00:55:34.864Z,0.00
2018-07-11T00:56:34.864Z,0.00
2018-07-11T00:57:34.851Z,0.00
2018-07-11T00:58:34.820Z,0.00
2018-07-11T00:59:34.804Z,0.00
2018-07-11T01:00:34.788Z,0.00
2018-07-11T01:01:34.773Z,0.00
2018-07-11T01:02:34.772Z,0.00
2018-07-11T01:03:34.747Z,0.00
2018-07-11T01:04:34.731Z,0.00
2018-07-11T01:05:34.722Z,0.00
2018-07-11T01:06:34.701Z,0.00
2018-07-11T01:07:34.700Z,0.00
2018-07-11T01:08:34.672Z,0.00
2018-07-11T01:09:34.662Z,0.00
2018-07-11T01:10:34.640Z,0.00
2018-07-11T01:11:34.627Z,0.00
2018-07-11T01:12:34.640Z,0.00
2018-07-11T01:13:34.599Z,0.00
2018-07-11T01:14:34.582Z,0.00
2018-07-11T01:15:34.564Z,0.00
2018-07-11T01:16:34.551Z,0.00
2018-07-11T01:17:34.536Z,0.00
2018-07-11T01:18:34.536Z,0.00
2018-07-11T01:19:34.509Z,0.00
2018-07-11T01:20:34.497Z,0.00
2018-07-11T01:21:34.478Z,0.00
2018-07-11T01:22:34.478Z,0.00
2018-07-11T01:23:34.458Z,0.00
2018-07-11T01:24:34.433Z,0.00
2018-07-11T01:25:34.416Z,0.00
2018-07-11T01:26:34.397Z,0.00
2018-07-11T01:27:34.382Z,0.00
2018-07-11T01:28:34.385Z,0.00
2018-07-11T01:29:34.359Z,0.00
2018-07-11T01:30:34.340Z,0.00
2018-07-11T01:31:34.330Z,0.00
2018-07-11T01:32:34.311Z,0.00
2018-07-11T01:33:34.312Z,0.00
2018-07-11T01:34:34.286Z,0.00
2018-07-11T01:35:34.266Z,0.00
2018-07-11T01:36:34.252Z,0.00
2018-07-11T01:37:34.236Z,0.00
2018-07-11T01:38:34.232Z,0.00
2018-07-11T01:39:34.209Z,0.00
2018-07-11T01:40:34.207Z,0.00
2018-07-11T01:41:34.174Z,0.00
2018-07-11T01:42:34.204Z,0.00
2018-07-11T01:43:34.141Z,0.00
2018-07-11T01:44:34.142Z,0.00
2018-07-11T01:45:34.119Z,0.00
2018-07-11T01:46:34.100Z,0.00
2018-07-11T01:47:34.084Z,0.00
2018-07-11T01:48:34.067Z,0.00
2018-07-11T01:49:34.078Z,0.00
2018-07-11T01:50:34.038Z,0.00
2018-07-11T01:51:34.024Z,0.00
2018-07-11T01:52:34.009Z,0.00
2018-07-11T01:53:33.988Z,0.00
2018-07-11T01:54:33.981Z,0.00
2018-07-11T01:55:33.977Z,0.00
2018-07-11T01:56:33.945Z,0.00
2018-07-11T01:57:33.932Z,0.00
2018-07-11T01:58:33.918Z,0.00
2018-07-11T01:59:33.903Z,0.00
2018-07-11T02:00:33.906Z,0.00
2018-07-11T02:01:33.869Z,0.00
2018-07-11T02:02:33.856Z,0.00
2018-07-11T02:03:33.840Z,0.00
2018-07-11T02:04:33.828Z,0.00
2018-07-11T02:05:33.812Z,0.00
2018-07-11T02:06:33.823Z,0.00
2018-07-11T02:07:33.779Z,0.00
2018-07-11T02:08:33.767Z,0.00
2018-07-11T02:09:33.749Z,0.00
2018-07-11T02:10:33.740Z,0.00
2018-07-11T02:11:33.719Z,0.00
2018-07-11T02:12:33.722Z,0.00
2018-07-11T02:13:33.691Z,0.00
2018-07-11T02:14:33.675Z,0.00
2018-07-11T02:15:33.660Z,0.00
2018-07-11T02:16:33.639Z,0.00
2018-07-11T02:17:33.654Z,0.00
2018-07-11T02:18:33.618Z,0.00
2018-07-11T02:19:33.597Z,0.00
2018-07-11T02:20:33.584Z,0.00
2018-07-11T02:21:33.568Z,0.00
2018-07-11T02:22:33.552Z,0.00
2018-07-11T02:23:33.552Z,0.00
2018-07-11T02:24:33.521Z,0.00
2018-07-11T02:25:33.512Z,0.00
2018-07-11T02:26:33.491Z,0.00
2018-07-11T02:27:33.473Z,0.00
2018-07-11T02:28:33.491Z,0.00
2018-07-11T02:29:33.447Z,0.00
2018-07-11T02:30:33.431Z,0.00
2018-07-11T02:31:33.415Z,0.00
2018-07-11T02:32:33.397Z,0.00
2018-07-11T02:33:33.385Z,0.00
2018-07-11T02:34:33.385Z,0.00
2018-07-11T02:35:33.367Z,0.00
2018-07-11T02:36:33.339Z,0.00
2018-07-11T02:37:33.328Z,0.00
2018-07-11T02:38:33.304Z,0.00
2018-07-11T02:39:33.292Z,0.00
2018-07-11T02:40:33.292Z,0.00
2018-07-11T02:41:33.261Z,0.00
2018-07-11T02:42:33.250Z,0.00
2018-07-11T02:43:33.231Z,0.00
2018-07-11T02:44:33.215Z,0.00
2018-07-11T02:45:33.216Z,0.00
2018-07-11T02:46:33.182Z,0.00
2018-07-11T02:47:33.169Z,0.00
2018-07-11T02:48:33.152Z,0.00
2018-07-11T02:49:33.140Z,0.00
2018-07-11T02:50:33.137Z,0.00
2018-07-11T02:51:33.108Z,0.00
2018-07-11T02:52:33.093Z,0.00
2018-07-11T02:53:33.103Z,0.00
2018-07-11T02:54:33.060Z,0.00
2018-07-11T02:55:33.060Z,0.00
2018-07-11T02:56:33.031Z,0.00
2018-07-11T02:57:33.027Z,0.00
2018-07-11T02:58:33.016Z,0.00
2018-07-11T02:59:32.984Z,0.00
2018-07-11T03:00:32.967Z,0.00
2018-07-11T03:01:32.967Z,0.00
2018-07-11T03:02:32.935Z,0.00
2018-07-11T03:03:32.922Z,0.00
2018-07-11T03:04:32.909Z,0.00
2018-07-11T03:05:32.891Z,0.00
2018-07-11T03:06:32.889Z,0.00
2018-07-11T03:07:32.864Z,0.00
2018-07-11T03:08:32.840Z,0.00
2018-07-11T03:09:32.827Z,0.00
2018-07-11T03:10:32.816Z,0.00
2018-07-11T03:11:32.800Z,4.00
2018-07-11T03:12:32.808Z,4.00
2018-07-11T03:13:32.763Z,4.00
2018-07-11T03:14:32.748Z,0.00
2018-07-11T03:15:32.734Z,0.00
2018-07-11T03:16:32.721Z,4.00
2018-07-11T03:17:32.707Z,4.00
2018-07-11T03:18:32.702Z,4.00
2018-07-11T03:19:32.671Z,4.00
2018-07-11T03:20:32.660Z,8.00
2018-07-11T03:21:32.637Z,4.00
2018-07-11T03:22:32.644Z,4.00
2018-07-11T03:23:32.608Z,8.00
2018-07-11T03:24:32.593Z,8.00
2018-07-11T03:25:32.582Z,8.00
2018-07-11T03:26:32.565Z,8.00
2018-07-11T03:27:32.561Z,12.00
2018-07-11T03:28:32.552Z,12.00
2018-07-11T03:29:32.519Z,12.00
2018-07-11T03:30:32.501Z,12.00
2018-07-11T03:31:32.485Z,16.00
2018-07-11T03:32:32.524Z,12.00
2018-07-11T03:33:32.467Z,16.00
2018-07-11T03:34:32.440Z,16.00
2018-07-11T03:35:32.423Z,16.00
2018-07-11T03:36:32.411Z,20.00
2018-07-11T03:37:32.394Z,16.00
2018-07-11T03:38:32.376Z,20.00
2018-07-11T03:39:33.132Z,24.00
2018-07-11T03:40:32.348Z,20.00
2018-07-11T03:41:32.347Z,24.00
2018-07-11T03:42:32.316Z,28.00
2018-07-11T03:43:32.299Z,24.00
2018-07-11T03:44:32.310Z,28.00
2018-07-11T03:45:32.271Z,28.00
2018-07-11T03:46:32.253Z,32.00
2018-07-11T03:47:32.233Z,32.00
2018-07-11T03:48:32.223Z,32.00
2018-07-11T03:49:32.207Z,36.00
2018-07-11T03:50:32.199Z,36.00
2018-07-11T03:51:32.173Z,40.00
2018-07-11T03:52:32.156Z,40.00
2018-07-11T03:53:32.144Z,40.00
2018-07-11T03:54:32.127Z,40.00
2018-07-11T03:55:32.126Z,44.00
2018-07-11T03:56:32.096Z,44.00
2018-07-11T03:57:32.083Z,48.00
2018-07-11T03:58:32.075Z,48.00
2018-07-11T03:59:32.044Z,52.00
2018-07-11T04:00:32.044Z,56.00
2018-07-11T04:01:32.017Z,56.00
2018-07-11T04:02:32.004Z,56.00
2018-07-11T04:03:31.985Z,60.00
2018-07-11T04:04:31.988Z,60.00
2018-07-11T04:05:31.968Z,64.00
2018-07-11T04:06:31.938Z,68.00
2018-07-11T04:07:31.928Z,68.00
2018-07-11T04:08:31.907Z,72.00
2018-07-11T04:09:31.891Z,72.00
2018-07-11T04:10:31.890Z,76.00
2018-07-11T04:11:31.862Z,80.00
2018-07-11T04:12:31.851Z,80.00
2018-07-11T04:13:31.827Z,88.00
2018-07-11T04:14:31.812Z,84.00
2018-07-11T04:15:31.795Z,92.00
2018-07-11T04:16:31.799Z,92.00
2018-07-11T04:17:31.766Z,92.00
2018-07-11T04:18:31.748Z,96.00
2018-07-11T04:19:31.734Z,96.00
2018-07-11T04:20:31.713Z,100.00
2018-07-11T04:21:31.704Z,100.00
2018-07-11T04:22:31.702Z,104.00
2018-07-11T04:23:31.674Z,108.00
2018-07-11T04:24:31.652Z,108.00
2018-07-11T04:25:31.641Z,112.00
2018-07-11T04:26:31.623Z,116.00
2018-07-11T04:27:31.622Z,116.00
2018-07-11T04:28:31.592Z,120.00
2018-07-11T04:29:31.573Z,124.00
2018-07-11T04:30:31.571Z,124.00
2018-07-11T04:31:31.547Z,128.00
2018-07-11T04:32:31.548Z,128.00
2018-07-11T04:33:31.617Z,128.00
2018-07-11T04:34:31.546Z,132.00
2018-07-11T04:35:31.497Z,136.00
2018-07-11T04:36:31.466Z,132.00
2018-07-11T04:37:31.469Z,136.00
2018-07-11T04:38:31.437Z,136.00
2018-07-11T04:39:31.420Z,144.00
2018-07-11T04:40:31.421Z,144.00
2018-07-11T04:41:31.392Z,156.00
2018-07-11T04:42:31.395Z,160.00
2018-07-11T04:43:31.359Z,168.00
2018-07-11T04:44:31.344Z,172.00
2018-07-11T04:45:31.325Z,176.00
2018-07-11T04:46:31.309Z,180.00
2018-07-11T04:47:31.310Z,180.00
2018-07-11T04:48:31.298Z,184.00
2018-07-11T04:49:31.267Z,184.00
2018-07-11T04:50:31.255Z,188.00
2018-07-11T04:51:31.254Z,200.00
2018-07-11T04:52:31.225Z,204.00
2018-07-11T04:53:31.208Z,208.00
2018-07-11T04:54:31.196Z,208.00
2018-07-11T04:55:31.186Z,212.00
2018-07-11T04:56:31.161Z,216.00
2018-07-11T04:57:31.169Z,224.00
2018-07-11T04:58:31.136Z,228.00
2018-07-11T04:59:31.114Z,236.00
2018-07-11T05:00:31.128Z,236.00
2018-07-11T05:01:31.088Z,236.00
2018-07-11T05:02:31.089Z,236.00
2018-07-11T05:03:31.059Z,244.00
2018-07-11T05:04:31.044Z,248.00
2018-07-11T05:05:31.048Z,256.00
2018-07-11T05:06:31.019Z,260.00
2018-07-11T05:07:31.005Z,268.00
2018-07-11T05:08:30.985Z,272.00
2018-07-11T05:09:30.972Z,272.00
2018-07-11T05:10:30.974Z,280.00
2018-07-11T05:11:30.945Z,292.00
2018-07-11T05:12:30.935Z,296.00
2018-07-11T05:13:30.929Z,296.00
2018-07-11T05:14:30.903Z,300.00
2018-07-11T05:15:30.909Z,304.00
2018-07-11T05:16:30.875Z,308.00
2018-07-11T05:17:30.864Z,300.00
2018-07-11T05:18:30.846Z,288.00
2018-07-11T05:19:30.848Z,276.00
2018-07-11T05:20:30.816Z,272.00
2018-07-11T05:21:30.804Z,268.00
2018-07-11T05:22:30.813Z,264.00
2018-07-11T05:23:30.773Z,264.00
2018-07-11T05:24:30.758Z,268.00
2018-07-11T05:25:30.776Z,264.00
2018-07-11T05:26:30.735Z,256.00
2018-07-11T05:27:30.724Z,244.00
2018-07-11T05:28:30.707Z,244.00
2018-07-11T05:29:30.712Z,244.00
2018-07-11T05:30:30.706Z,248.00
2018-07-11T05:31:30.666Z,244.00
2018-07-11T05:32:30.655Z,240.00
2018-07-11T05:33:30.634Z,236.00
2018-07-11T05:34:30.622Z,232.00
2018-07-11T05:35:30.613Z,236.00
2018-07-11T05:36:51.601Z,240.00
2018-07-11T05:37:31.185Z,240.00
2018-07-11T05:38:30.568Z,248.00
2018-07-11T05:39:30.560Z,248.00
2018-07-11T05:40:30.537Z,248.00
2018-07-11T05:41:30.554Z,252.00
2018-07-11T05:42:30.559Z,252.00
2018-07-11T05:43:30.499Z,252.00
2018-07-11T05:44:30.479Z,256.00
2018-07-11T05:45:30.468Z,256.00
2018-07-11T05:46:30.473Z,260.00
2018-07-11T05:47:30.440Z,260.00
2018-07-11T05:48:30.425Z,260.00
2018-07-11T05:49:30.416Z,260.00
2018-07-11T05:50:30.402Z,260.00
2018-07-11T05:51:30.404Z,268.00
2018-07-11T05:52:30.371Z,264.00
2018-07-11T05:53:30.355Z,268.00
2018-07-11T05:54:30.339Z,268.00
2018-07-11T05:55:30.328Z,268.00
2018-07-11T05:56:30.341Z,272.00
2018-07-11T05:57:30.295Z,280.00
2018-07-11T05:58:30.281Z,280.00
2018-07-11T05:59:30.268Z,284.00
2018-07-11T06:00:30.260Z,284.00
2018-07-11T06:01:30.243Z,284.00
2018-07-11T06:02:30.288Z,280.00
2018-07-11T06:03:30.212Z,284.00
2018-07-11T06:04:30.201Z,280.00
2018-07-11T06:05:30.257Z,284.00
2018-07-11T06:06:30.174Z,288.00
2018-07-11T06:07:30.170Z,292.00
2018-07-11T06:08:30.146Z,296.00
2018-07-11T06:09:30.129Z,300.00
2018-07-11T06:10:30.130Z,304.00
2018-07-11T06:11:30.102Z,304.00
2018-07-11T06:12:30.121Z,308.00
2018-07-11T06:13:30.167Z,304.00
2018-07-11T06:14:30.061Z,304.00
2018-07-11T06:15:30.044Z,308.00
2018-07-11T06:16:30.035Z,308.00
2018-07-11T06:17:30.024Z,312.00
2018-07-11T06:18:30.005Z,312.00
2018-07-11T06:19:30.006Z,316.00
2018-07-11T06:20:29.971Z,312.00
2018-07-11T06:21:29.958Z,316.00
2018-07-11T06:22:29.945Z,316.00
2018-07-11T06:23:29.930Z,320.00
2018-07-11T06:24:29.936Z,324.00
2018-07-11T06:25:29.900Z,324.00
2018-07-11T06:26:29.893Z,320.00
2018-07-11T06:27:29.873Z,324.00
2018-07-11T06:28:29.865Z,324.00
2018-07-11T06:29:29.868Z,328.00
2018-07-11T06:30:29.835Z,328.00
2018-07-11T06:31:29.824Z,336.00
2018-07-11T06:32:29.809Z,336.00
2018-07-11T06:33:29.864Z,336.00
2018-07-11T06:34:29.801Z,340.00
2018-07-11T06:35:29.764Z,344.00
2018-07-11T06:36:29.748Z,348.00
2018-07-11T06:37:29.740Z,352.00
2018-07-11T06:38:29.727Z,356.00
2018-07-11T06:39:29.709Z,360.00
2018-07-11T06:40:29.727Z,360.00
2018-07-11T06:41:29.687Z,360.00
2018-07-11T06:42:29.678Z,364.00
2018-07-11T06:43:29.655Z,364.00
2018-07-11T06:44:29.696Z,368.00
2018-07-11T06:45:29.631Z,364.00
2018-07-11T06:46:29.628Z,364.00
2018-07-11T06:47:29.598Z,364.00
2018-07-11T06:48:29.587Z,364.00
2018-07-11T06:49:29.585Z,368.00
2018-07-11T06:50:29.570Z,372.00
2018-07-11T06:51:29.569Z,376.00
2018-07-11T06:52:29.532Z,380.00
2018-07-11T06:53:29.517Z,384.00
2018-07-11T06:54:29.506Z,392.00
2018-07-11T06:55:29.507Z,404.00
2018-07-11T06:56:29.493Z,412.00
2018-07-11T06:57:29.492Z,408.00
2018-07-11T06:58:29.463Z,408.00
2018-07-11T06:59:29.431Z,416.00
2018-07-11T07:00:29.437Z,420.00
2018-07-11T07:01:29.424Z,428.00
2018-07-11T07:02:29.394Z,436.00
2018-07-11T07:03:29.439Z,448.00
2018-07-11T07:04:29.369Z,452.00
2018-07-11T07:05:29.348Z,452.00
2018-07-11T07:06:29.356Z,444.00
2018-07-11T07:07:29.325Z,440.00
2018-07-11T07:08:29.314Z,444.00
2018-07-11T07:09:29.319Z,440.00
2018-07-11T07:10:29.285Z,436.00
2018-07-11T07:11:29.274Z,436.00
2018-07-11T07:12:29.276Z,436.00
2018-07-11T07:13:29.247Z,444.00
2018-07-11T07:14:29.252Z,444.00
2018-07-11T07:15:29.224Z,440.00
2018-07-11T07:16:29.276Z,436.00
2018-07-11T07:17:29.194Z,436.00
2018-07-11T07:18:29.200Z,436.00
2018-07-11T07:19:29.167Z,432.00
2018-07-11T07:20:29.154Z,436.00
2018-07-11T07:21:29.142Z,444.00
2018-07-11T07:22:29.184Z,448.00
2018-07-11T07:23:29.126Z,452.00
2018-07-11T07:24:29.100Z,452.00
2018-07-11T07:25:29.083Z,456.00
2018-07-11T07:26:29.070Z,460.00
2018-07-11T07:27:29.078Z,460.00
2018-07-11T07:28:29.043Z,468.00
2018-07-11T07:29:29.035Z,468.00
2018-07-11T07:30:29.032Z,480.00
2018-07-11T07:31:29.007Z,492.00
2018-07-11T07:32:29.015Z,508.00
2018-07-11T07:33:28.999Z,516.00
2018-07-11T07:34:28.971Z,516.00
2018-07-11T07:35:28.965Z,516.00
2018-07-11T07:36:28.946Z,512.00
2018-07-11T07:37:28.941Z,512.00
2018-07-11T07:38:28.936Z,512.00
2018-07-11T07:39:28.907Z,508.00
2018-07-11T07:40:28.894Z,512.00
2018-07-11T07:41:28.880Z,516.00
2018-07-11T07:42:28.864Z,524.00
2018-07-11T07:43:28.870Z,532.00
2018-07-11T07:44:28.836Z,544.00
2018-07-11T07:45:28.827Z,548.00
2018-07-11T07:46:28.825Z,552.00
2018-07-11T07:47:28.801Z,548.00
2018-07-11T07:48:28.804Z,548.00
2018-07-11T07:49:28.774Z,560.00
2018-07-11T07:50:28.872Z,560.00
2018-07-11T07:51:28.747Z,568.00
2018-07-11T07:52:28.737Z,584.00
2018-07-11T07:53:28.754Z,588.00
2018-07-11T07:54:28.721Z,584.00
2018-07-11T07:55:28.710Z,588.00
2018-07-11T07:56:28.691Z,600.00
2018-07-11T07:57:28.672Z,620.00
2018-07-11T07:58:28.665Z,636.00
2018-07-11T07:59:28.681Z,628.00
2018-07-11T08:00:28.649Z,624.00
2018-07-11T08:01:28.622Z,600.00
2018-07-11T08:02:28.609Z,588.00
2018-07-11T08:03:28.596Z,584.00
2018-07-11T08:04:28.599Z,600.00
2018-07-11T08:05:28.583Z,616.00
2018-07-11T08:06:28.564Z,616.00
2018-07-11T08:07:28.547Z,608.00
2018-07-11T08:08:28.540Z,604.00
2018-07-11T08:09:28.554Z,604.00
2018-07-11T08:10:28.536Z,604.00
2018-07-11T08:11:28.502Z,592.00
2018-07-11T08:12:28.617Z,596.00
2018-07-11T08:13:28.471Z,604.00
2018-07-11T08:14:28.458Z,620.00
2018-07-11T08:15:28.445Z,644.00
2018-07-11T08:16:28.455Z,680.00
2018-07-11T08:17:28.427Z,692.00
2018-07-11T08:18:28.413Z,684.00
2018-07-11T08:19:28.398Z,692.00
2018-07-11T08:20:28.393Z,704.00
2018-07-11T08:21:28.417Z,744.00
2018-07-11T08:22:28.365Z,792.00
2018-07-11T08:23:28.352Z,868.00
2018-07-11T08:24:28.337Z,928.00
2018-07-11T08:25:28.359Z,964.00
2018-07-11T08:26:28.308Z,1060.00
2018-07-11T08:27:28.337Z,1228.00
2018-07-11T08:28:28.287Z,1244.00
2018-07-11T08:29:28.273Z,1152.00
2018-07-11T08:30:28.262Z,1080.00
2018-07-11T08:31:28.269Z,1000.00
2018-07-11T08:32:28.253Z,944.00
2018-07-11T08:33:28.233Z,908.00
2018-07-11T08:34:28.227Z,928.00
2018-07-11T08:35:28.209Z,1012.00
2018-07-11T08:36:28.227Z,920.00
2018-07-11T08:37:28.183Z,948.00
2018-07-11T08:38:28.173Z,1148.00
2018-07-11T08:39:28.161Z,1080.00
2018-07-11T08:40:28.148Z,1004.00
2018-07-11T08:41:28.137Z,948.00
2018-07-11T08:42:28.150Z,888.00
2018-07-11T08:43:28.113Z,860.00
2018-07-11T08:44:28.108Z,868.00
2018-07-11T08:45:28.107Z,884.00
2018-07-11T08:46:28.078Z,904.00
2018-07-11T08:47:28.069Z,980.00
2018-07-11T08:48:49.069Z,912.00
2018-07-11T08:49:28.048Z,1072.00
2018-07-11T08:50:28.033Z,1488.00
2018-07-11T08:51:28.025Z,1912.00
2018-07-11T08:52:28.013Z,1960.00
2018-07-11T08:53:28.016Z,1900.00
2018-07-11T08:54:28.006Z,2528.00
2018-07-11T08:55:27.978Z,2660.00
2018-07-11T08:56:27.969Z,1584.00
2018-07-11T08:57:27.963Z,1632.00
2018-07-11T08:58:27.961Z,4052.00
2018-07-11T08:59:27.937Z,2376.00
2018-07-11T09:00:27.942Z,4572.00
2018-07-11T09:01:27.914Z,2280.00
2018-07-11T09:02:27.903Z,2040.00
2018-07-11T09:03:27.910Z,2144.00
2018-07-11T09:04:27.882Z,2040.00
2018-07-11T09:05:27.872Z,1860.00
2018-07-11T09:06:27.877Z,2180.00
2018-07-11T09:07:27.855Z,5164.00
2018-07-11T09:08:27.841Z,9224.00
2018-07-11T09:09:27.831Z,12184.00
2018-07-11T09:10:27.874Z,15044.00
2018-07-11T09:11:27.810Z,15744.00
2018-07-11T09:12:27.804Z,11812.00
2018-07-11T09:13:27.786Z,13228.00
2018-07-11T09:14:27.784Z,8448.00
2018-07-11T09:15:27.785Z,13832.00
2018-07-11T09:16:27.760Z,14192.00
2018-07-11T09:17:27.753Z,12760.00
2018-07-11T09:18:27.740Z,12864.00
2018-07-11T09:19:27.760Z,16352.00
2018-07-11T09:20:27.722Z,17760.00
2018-07-11T09:21:27.711Z,17824.00
2018-07-11T09:22:27.704Z,17856.00
2018-07-11T09:23:27.691Z,18624.00
2018-07-11T09:24:27.724Z,17184.00
2018-07-11T09:25:27.688Z,15456.00
2018-07-11T09:26:27.670Z,19168.00
2018-07-11T09:27:27.675Z,19456.00
2018-07-11T09:28:27.653Z,16320.00
2018-07-11T09:29:27.645Z,1916.00
2018-07-11T09:30:27.674Z,9688.00
2018-07-11T09:31:27.631Z,2640.00
2018-07-11T09:32:27.622Z,18848.00
2018-07-11T09:33:27.620Z,19200.00
2018-07-11T09:34:27.611Z,1492.00
2018-07-11T09:35:27.613Z,1220.00
2018-07-11T09:36:27.597Z,1048.00
2018-07-11T09:37:27.611Z,1188.00
2018-07-11T09:38:27.590Z,20160.00
2018-07-11T09:39:27.576Z,20000.00
2018-07-11T09:40:27.573Z,20032.00
2018-07-11T09:41:27.564Z,19584.00
2018-07-11T09:42:27.571Z,19296.00
2018-07-11T09:43:27.551Z,19328.00
2018-07-11T09:44:27.545Z,19360.00
2018-07-11T09:45:27.536Z,19104.00
2018-07-11T09:46:27.529Z,19136.00
2018-07-11T09:47:27.541Z,19200.00
2018-07-11T09:48:27.521Z,19488.00
2018-07-11T09:49:27.513Z,19616.00
2018-07-11T09:50:27.506Z,20064.00
2018-07-11T09:51:27.506Z,15104.00
2018-07-11T09:52:27.511Z,3080.00
2018-07-11T09:53:27.496Z,2240.00
2018-07-11T09:54:27.489Z,2244.00
2018-07-11T09:55:27.490Z,1948.00
2018-07-11T09:56:27.486Z,1144.00
2018-07-11T09:57:27.496Z,1020.00
2018-07-11T09:58:27.477Z,1104.00
2018-07-11T09:59:27.472Z,1472.00
2018-07-11T10:00:27.463Z,2132.00
2018-07-11T10:01:27.463Z,9768.00
2018-07-11T10:02:27.471Z,2460.00
2018-07-11T10:03:27.452Z,1916.00
2018-07-11T10:04:27.440Z,1012.00
2018-07-11T10:05:27.454Z,1060.00
2018-07-11T10:06:27.436Z,1328.00
2018-07-11T10:07:27.427Z,1508.00
2018-07-11T10:08:27.423Z,1464.00
2018-07-11T10:09:27.413Z,1684.00
2018-07-11T10:10:27.421Z,2212.00
2018-07-11T10:11:27.412Z,2628.00
2018-07-11T10:12:27.396Z,2056.00
2018-07-11T10:13:27.384Z,2084.00
2018-07-11T10:14:27.391Z,2408.00
2018-07-11T10:15:27.367Z,2344.00
2018-07-11T10:16:27.362Z,3388.00
2018-07-11T10:17:27.366Z,16288.00
2018-07-11T10:18:27.348Z,23136.00
2018-07-11T10:19:27.335Z,23488.00
2018-07-11T10:20:27.361Z,14580.00
2018-07-11T10:21:27.324Z,12600.00
2018-07-11T10:22:27.316Z,6384.00
2018-07-11T10:23:27.309Z,7948.00
2018-07-11T10:24:27.311Z,11416.00
2018-07-11T10:25:27.295Z,21312.00
2018-07-11T10:26:28.412Z,3240.00
2018-07-11T10:27:27.408Z,2560.00
2018-07-11T10:28:27.296Z,3120.00
2018-07-11T10:29:27.323Z,5156.00
2018-07-11T10:30:27.270Z,25536.00
2018-07-11T10:31:27.274Z,24608.00
2018-07-11T10:32:27.253Z,24640.00
2018-07-11T10:33:27.238Z,24608.00
2018-07-11T10:34:27.238Z,24640.00
2018-07-11T10:35:27.232Z,25504.00
2018-07-11T10:36:27.233Z,24352.00
2018-07-11T10:37:27.235Z,24960.00
2018-07-11T10:38:27.211Z,25760.00
2018-07-11T10:39:27.203Z,24960.00
2018-07-11T10:40:27.214Z,26112.00
2018-07-11T10:41:27.194Z,26112.00
2018-07-11T10:42:27.206Z,25728.00
2018-07-11T10:43:27.188Z,26144.00
2018-07-11T10:44:27.188Z,26304.00
2018-07-11T10:45:27.178Z,26880.00
2018-07-11T10:46:27.181Z,25952.00
2018-07-11T10:47:27.192Z,25888.00
2018-07-11T10:48:27.179Z,26368.00
2018-07-11T10:49:27.180Z,5480.00
2018-07-11T10:50:27.216Z,27680.00
2018-07-11T10:51:27.165Z,28384.00
2018-07-11T10:52:27.182Z,27616.00
2018-07-11T10:53:27.159Z,27680.00
2018-07-11T10:54:27.175Z,27104.00
2018-07-11T10:55:27.156Z,28352.00
2018-07-11T10:56:27.157Z,24000.00
2018-07-11T10:57:27.180Z,3872.00
2018-07-11T10:58:27.170Z,4420.00
2018-07-11T10:59:27.169Z,2152.00
2018-07-11T11:00:36.654Z,26688.00
2018-07-11T11:01:27.176Z,26944.00
2018-07-11T11:02:27.150Z,25472.00
2018-07-11T11:03:27.150Z,29344.00
2018-07-11T11:04:27.150Z,29152.00
2018-07-11T11:05:27.144Z,28768.00
2018-07-11T11:06:27.154Z,27520.00
2018-07-11T11:07:27.147Z,28960.00
2018-07-11T11:08:27.144Z,27808.00
2018-07-11T11:09:27.152Z,27424.00
2018-07-11T11:10:27.135Z,26400.00
2018-07-11T11:11:27.149Z,25024.00
2018-07-11T11:12:27.131Z,5664.00
2018-07-11T11:13:27.131Z,24832.00
2018-07-11T11:14:27.151Z,21056.00
2018-07-11T11:15:27.133Z,2228.00
2018-07-11T11:16:27.127Z,4784.00
2018-07-11T11:17:27.128Z,26560.00
2018-07-11T11:18:27.139Z,19840.00
2018-07-11T11:19:27.125Z,6496.00
2018-07-11T11:20:27.121Z,24256.00
2018-07-11T11:21:27.118Z,22272.00
2018-07-11T11:22:27.124Z,21056.00
2018-07-11T11:23:27.134Z,19136.00
2018-07-11T11:24:27.125Z,14204.00
2018-07-11T11:25:27.112Z,20608.00
2018-07-11T11:26:27.113Z,8464.00
2018-07-11T11:27:27.127Z,7264.00
2018-07-11T11:28:27.111Z,10600.00
2018-07-11T11:29:27.112Z,8068.00
2018-07-11T11:30:27.113Z,8952.00
2018-07-11T11:31:27.114Z,4184.00
2018-07-11T11:32:27.125Z,3256.00
2018-07-11T11:33:27.119Z,2584.00
2018-07-11T11:34:27.108Z,2256.00
2018-07-11T11:35:27.101Z,2108.00
2018-07-11T11:36:27.105Z,2304.00
2018-07-11T11:37:27.100Z,2172.00
2018-07-11T11:38:27.113Z,1968.00
2018-07-11T11:39:27.103Z,1792.00
2018-07-11T11:40:27.117Z,1772.00
2018-07-11T11:41:27.112Z,1620.00
2018-07-11T11:42:27.281Z,1520.00
2018-07-11T11:43:27.114Z,1420.00
2018-07-11T11:44:27.078Z,1512.00
2018-07-11T11:45:27.075Z,1836.00
2018-07-11T11:46:27.087Z,2440.00
2018-07-11T11:47:27.063Z,2432.00
2018-07-11T11:48:27.059Z,2328.00
2018-07-11T11:49:48.072Z,2292.00
2018-07-11T11:50:27.061Z,2500.00
2018-07-11T11:51:27.042Z,2712.00
2018-07-11T11:52:27.038Z,2592.00
2018-07-11T11:53:27.031Z,2308.00
2018-07-11T11:54:27.034Z,2296.00
2018-07-11T11:55:27.013Z,2332.00
2018-07-11T11:56:27.027Z,2536.00
2018-07-11T11:57:27.018Z,2812.00
2018-07-11T11:58:27.033Z,3920.00
2018-07-11T11:59:26.985Z,4052.00
2018-07-11T12:00:26.997Z,3720.00
2018-07-11T12:01:26.976Z,4428.00
2018-07-11T12:02:29.372Z,3932.00
2018-07-11T12:03:26.965Z,3916.00
2018-07-11T12:04:33.172Z,4060.00
2018-07-11T12:05:26.943Z,3476.00
2018-07-11T12:06:27.829Z,3176.00
2018-07-11T12:07:27.804Z,3040.00
2018-07-11T12:08:26.942Z,2968.00
2018-07-11T12:09:26.929Z,2896.00
2018-07-11T12:10:32.995Z,2852.00
2018-07-11T12:11:26.930Z,2840.00
2018-07-11T12:12:26.917Z,2788.00
2018-07-11T12:13:26.911Z,1120.00
2018-07-11T12:14:26.904Z,2216.00
2018-07-11T12:15:26.901Z,1624.00
2018-07-11T12:16:26.912Z,3708.00
2018-07-11T12:17:26.899Z,4308.00
2018-07-11T12:18:26.888Z,4176.00
2018-07-11T12:19:26.885Z,4120.00
2018-07-11T12:20:26.881Z,3964.00
2018-07-11T12:21:26.942Z,4100.00
2018-07-11T12:22:26.905Z,2992.00
2018-07-11T12:23:26.866Z,4496.00
2018-07-11T12:24:26.863Z,4292.00
2018-07-11T12:25:26.857Z,4640.00
2018-07-11T12:26:26.847Z,4236.00
2018-07-11T12:27:26.871Z,4384.00
2018-07-11T12:28:26.848Z,4616.00
2018-07-11T12:29:26.841Z,4624.00
2018-07-11T12:30:26.834Z,4048.00
2018-07-11T12:31:26.850Z,4788.00
2018-07-11T12:32:26.861Z,5188.00